Time;durP1;ratioP1;P1;durP2;ratioP2;P2;SDS_P1;SDS_P2;PMS_P1;PMS_P2;Temp;Humidity;BMP_temperature;BMP_pressure;BME280_temperature;BME280_humidity;BME280_pressure;Samples;Min_cycle;Max_cycle;Signal;HPM_P1;HPM_P2
2022/01/03 00:04:21;;;;;;;20.48;8.57;;;;;;;8.31;83.05;101076.53;10458498;28;20492;-82
2022/01/03 00:09:22;;;;;;;13.88;4.88;;;;;;;8.25;83.00;101081.38;10438642;28;20032;-81
2022/01/03 00:14:24;;;;;;;25.27;6.00;;;;;;;8.22;82.85;101084.69;10432162;28;20058;-82
2022/01/03 00:19:24;;;;;;;20.58;4.78;;;;;;;8.30;82.99;101093.00;10449523;28;20029;-82
2022/01/03 00:24:29;;;;;;;16.92;5.43;;;;;;;8.30;83.20;101090.41;10459091;28;20454;-82
2022/01/03 00:29:35;;;;;;;25.20;8.75;;;;;;;8.44;82.69;101099.03;10455669;28;20465;-81
2022/01/03 00:34:36;;;;;;;15.43;5.68;;;;;;;8.39;82.86;101095.25;10477456;28;20554;-83
2022/01/03 00:39:37;;;;;;;17.83;5.43;;;;;;;8.43;81.84;101105.06;10470569;28;20057;-82
2022/01/03 00:44:37;;;;;;;21.98;5.35;;;;;;;8.43;81.79;101099.84;10460317;28;20074;-82
2022/01/03 00:49:38;;;;;;;11.82;3.88;;;;;;;8.39;81.58;101092.63;10450506;28;20503;-83
2022/01/03 00:54:39;;;;;;;21.00;4.30;;;;;;;8.40;81.10;101101.38;10433156;28;20021;-83
2022/01/03 00:59:56;;;;;;;16.63;4.88;;;;;;;8.25;81.49;101104.84;10433803;28;20017;-83
2022/01/03 01:04:57;;;;;;;26.42;6.00;;;;;;;8.05;82.51;101103.63;10468814;28;20039;-83
2022/01/03 01:09:59;;;;;;;27.58;6.20;;;;;;;7.97;83.51;101110.97;10474787;28;20476;-83
2022/01/03 01:15:00;;;;;;;17.05;6.35;;;;;;;8.03;83.13;101119.19;10452579;28;20480;-82
2022/01/03 01:20:00;;;;;;;23.15;7.43;;;;;;;8.11;82.99;101118.75;10472209;28;20060;-81
2022/01/03 01:25:24;;;;;;;19.50;5.47;;;;;;;8.06;83.05;101115.84;10435100;28;20491;-82
2022/01/03 01:30:26;;;;;;;19.50;6.35;;;;;;;7.85;83.91;101131.06;10481478;28;20366;-82
2022/01/03 01:35:43;;;;;;;24.92;7.90;;;;;;;7.94;83.82;101135.13;10459390;28;20100;-83
2022/01/03 01:40:46;;;;;;;16.10;5.03;;;;;;;8.20;82.74;101141.06;10482750;28;20082;-83
2022/01/03 01:45:47;;;;;;;21.50;8.38;;;;;;;8.35;81.27;101130.69;10442182;28;20819;-82
2022/01/03 01:50:50;;;;;;;19.95;6.47;;;;;;;8.37;81.07;101141.19;10451394;28;20060;-83
2022/01/03 01:55:51;;;;;;;;;;;;;;;8.38;80.65;101140.38;10442689;28;20102;-84
2022/01/03 02:00:57;;;;;;;20.90;5.78;;;;;;;8.27;80.37;101136.22;10468027;28;19912;-84
2022/01/03 02:06:25;;;;;;;17.35;4.28;;;;;;;8.14;80.34;101145.03;10457488;28;20404;-83
2022/01/03 02:11:42;;;;;;;16.45;6.55;;;;;;;8.21;79.48;101141.97;10483776;28;20032;-84
2022/01/03 02:16:43;;;;;;;21.05;7.45;;;;;;;8.15;79.66;101136.38;10474294;28;20029;-83
2022/01/03 02:21:43;;;;;;;11.60;3.35;;;;;;;8.12;80.05;101149.25;10468871;28;20479;-84
2022/01/03 02:26:44;;;;;;;24.38;6.43;;;;;;;8.11;80.40;101148.31;10457508;28;20056;-83
2022/01/03 02:31:44;;;;;;;19.08;4.80;;;;;;;8.13;80.41;101151.03;10495508;28;20060;-83
2022/01/03 02:36:45;;;;;;;16.38;4.13;;;;;;;8.21;80.05;101155.03;10455108;28;20127;-83
2022/01/03 02:41:45;;;;;;;13.05;4.80;;;;;;;8.19;80.18;101151.41;10473637;28;20065;-82
2022/01/03 02:46:46;;;;;;;14.77;5.07;;;;;;;8.08;80.47;101151.66;10473287;28;20047;-83
2022/01/03 02:51:46;;;;;;;20.30;4.68;;;;;;;7.97;80.51;101147.47;10466953;28;20021;-83
2022/01/03 02:56:47;;;;;;;17.90;5.90;;;;;;;7.84;80.67;101145.78;10471980;28;20029;-83
2022/01/03 03:01:48;;;;;;;16.85;5.15;;;;;;;7.82;80.96;101142.19;10445534;28;20051;-84
2022/01/03 03:06:49;;;;;;;21.95;6.03;;;;;;;7.97;80.91;101152.69;10474527;28;20071;-83
2022/01/03 03:11:50;;;;;;;19.55;5.65;;;;;;;8.04;81.54;101161.78;10473417;28;20071;-83
2022/01/03 03:16:50;;;;;;;23.75;4.72;;;;;;;8.10;80.78;101166.50;10470203;28;20052;-84
2022/01/03 03:21:51;;;;;;;17.83;4.97;;;;;;;8.13;81.05;101153.66;10463618;28;20029;-83
2022/01/03 03:26:51;;;;;;;14.18;5.30;;;;;;;8.25;80.07;101157.00;10471347;28;20501;-82
2022/01/03 03:31:52;;;;;;;26.30;6.25;;;;;;;8.23;80.20;101161.22;10480829;28;20265;-82
2022/01/03 03:36:52;;;;;;;20.65;5.20;;;;;;;8.37;80.02;101173.41;10437839;28;20076;-82
2022/01/03 03:41:53;;;;;;;25.00;5.70;;;;;;;8.39;79.59;101160.44;10470929;28;20072;-82
2022/01/03 03:46:53;;;;;;;15.20;4.13;;;;;;;8.31;80.31;101160.00;10469945;28;20357;-82
2022/01/03 03:51:54;;;;;;;16.05;4.30;;;;;;;8.23;80.54;101169.06;10457586;28;20063;-83
2022/01/03 03:56:56;;;;;;;17.52;4.28;;;;;;;8.29;80.35;101168.50;10453402;28;20500;-83
2022/01/03 04:01:57;;;;;;;14.45;3.72;;;;;;;8.38;79.57;101154.34;10460621;28;20543;-82
2022/01/03 04:06:58;;;;;;;23.08;6.90;;;;;;;8.37;79.46;101154.25;10451800;28;20388;-83
2022/01/03 04:11:58;;;;;;;18.40;5.45;;;;;;;8.22;79.68;101146.41;10460893;28;20032;-83
2022/01/03 04:16:59;;;;;;;16.92;4.47;;;;;;;8.21;80.10;101142.88;10468665;28;20032;-83
2022/01/03 04:21:59;;;;;;;11.05;3.65;;;;;;;8.05;80.53;101134.91;10477173;28;20032;-82
2022/01/03 04:27:00;;;;;;;20.83;4.55;;;;;;;8.08;80.18;101145.53;10452534;28;20147;-83
2022/01/03 04:32:00;;;;;;;17.85;4.88;;;;;;;8.03;80.21;101139.13;10463546;28;20049;-83
2022/01/03 04:37:01;;;;;;;12.32;5.13;;;;;;;8.03;80.75;101136.50;10445836;28;20041;-82
2022/01/03 04:42:02;;;;;;;15.35;6.05;;;;;;;8.14;80.18;101124.16;10447260;28;20064;-83
2022/01/03 04:47:02;;;;;;;17.83;4.50;;;;;;;8.16;79.57;101119.94;10468790;28;20028;-83
2022/01/03 04:52:03;;;;;;;10.30;4.32;;;;;;;8.11;79.48;101118.75;10476092;28;20068;-83
2022/01/03 04:57:04;;;;;;;18.40;3.92;;;;;;;8.02;79.96;101121.69;10418582;28;20053;-82
2022/01/03 05:02:05;;;;;;;17.58;6.40;;;;;;;7.96;80.72;101118.69;10460444;28;20029;-82
2022/01/03 05:07:05;;;;;;;19.38;5.82;;;;;;;7.93;80.30;101107.28;10484437;28;20065;-82
2022/01/03 05:12:06;;;;;;;15.23;3.97;;;;;;;7.81;80.75;101113.44;10453077;28;20374;-82
2022/01/03 05:17:07;;;;;;;13.45;3.92;;;;;;;7.78;81.13;101124.56;10493080;28;20029;-83
2022/01/03 05:22:07;;;;;;;19.48;3.92;;;;;;;7.90;81.30;101116.63;10466490;28;20097;-82
2022/01/03 05:27:08;;;;;;;14.48;4.32;;;;;;;7.91;81.11;101105.38;10447051;28;20024;-83
2022/01/03 05:32:08;;;;;;;28.92;6.78;;;;;;;7.91;81.02;101106.28;10487067;28;20033;-82
2022/01/03 05:37:09;;;;;;;18.58;5.97;;;;;;;8.03;80.46;101093.13;10479549;28;20389;-82
2022/01/03 05:42:09;;;;;;;14.05;5.13;;;;;;;8.17;80.66;101100.88;10494321;28;20032;-82
2022/01/03 05:47:10;;;;;;;13.82;4.15;;;;;;;8.19;80.51;101092.34;10470295;28;20036;-83
2022/01/03 05:52:10;;;;;;;15.77;5.10;;;;;;;8.32;79.95;101099.22;10439472;28;20524;-86
2022/01/03 05:57:11;;;;;;;22.13;7.47;;;;;;;8.33;80.21;101101.00;10522851;28;20032;-84
2022/01/03 06:02:13;;;;;;;13.20;5.57;;;;;;;8.35;80.17;101106.31;10466088;28;20037;-81
2022/01/03 06:07:13;;;;;;;15.68;5.30;;;;;;;8.36;79.80;101088.16;10473361;28;20478;-85
2022/01/03 06:12:14;;;;;;;15.55;4.15;;;;;;;8.17;80.60;101085.25;10466120;28;20037;-85
2022/01/03 06:17:15;;;;;;;17.60;4.38;;;;;;;8.00;80.76;101079.91;10448576;28;20029;-84
2022/01/03 06:22:17;;;;;;;17.17;4.25;;;;;;;8.03;81.36;101087.91;10448357;28;20507;-83
2022/01/03 06:27:18;;;;;;;20.55;4.70;;;;;;;8.15;80.96;101069.50;10453928;28;20411;-82
2022/01/03 06:32:18;;;;;;;16.13;5.82;;;;;;;8.15;80.66;101059.06;10462808;28;20071;-81
2022/01/03 06:37:19;;;;;;;9.10;3.75;;;;;;;8.15;80.29;101060.78;10479764;28;20133;-82
2022/01/03 06:42:20;;;;;;;12.27;4.68;;;;;;;8.14;81.03;101058.97;10463845;28;20028;-83
2022/01/03 06:47:20;;;;;;;16.15;5.10;;;;;;;8.16;80.22;101073.91;10484316;28;20477;-81
2022/01/03 06:52:21;;;;;;;13.50;3.78;;;;;;;8.16;80.85;101065.19;10448690;28;20029;-82
2022/01/03 06:57:21;;;;;;;19.10;4.38;;;;;;;8.20;80.12;101062.84;10486440;28;20082;-82
2022/01/03 07:02:22;;;;;;;19.70;6.55;;;;;;;8.02;82.01;101048.69;10464494;28;20502;-80
2022/01/03 07:07:22;;;;;;;17.85;4.85;;;;;;;7.82;83.18;101037.94;10467327;28;20123;-81
2022/01/03 07:12:23;;;;;;;11.52;4.00;;;;;;;7.69;84.20;101049.34;10432800;28;20115;-83
2022/01/03 07:22:42;;;;;;;20.80;5.50;;;;;;;7.66;84.18;101050.84;10452791;28;20163;-84
2022/01/03 07:27:43;;;;;;;19.38;5.25;;;;;;;7.60;84.17;101046.16;10441544;28;20028;-83
2022/01/03 07:32:43;;;;;;;18.45;4.50;;;;;;;7.75;83.97;101059.22;10456955;28;20064;-84
2022/01/03 07:37:44;;;;;;;21.00;7.28;;;;;;;7.77;83.43;101050.72;10441964;28;20041;-84
2022/01/03 07:42:44;;;;;;;18.98;4.07;;;;;;;7.78;83.77;101060.31;10444838;28;20400;-84
2022/01/03 07:47:45;;;;;;;23.90;6.45;;;;;;;7.62;84.87;101057.56;10457050;28;20075;-84
2022/01/03 07:52:46;;;;;;;16.52;6.30;;;;;;;7.69;84.40;101038.91;10462872;28;20132;-84
2022/01/03 07:57:46;;;;;;;23.38;5.75;;;;;;;7.78;84.50;101041.16;10460245;28;20057;-83
2022/01/03 08:02:47;;;;;;;25.48;5.38;;;;;;;7.83;84.01;101064.94;10462217;28;20048;-85
2022/01/03 08:07:47;;;;;;;18.52;5.05;;;;;;;7.92;83.97;101063.78;10453565;28;20025;-84
2022/01/03 08:12:48;;;;;;;17.27;6.22;;;;;;;8.07;83.55;101079.47;10480987;28;20042;-84
2022/01/03 08:17:48;;;;;;;15.90;4.75;;;;;;;8.11;82.74;101062.28;10435315;28;20060;-83
2022/01/03 08:22:49;;;;;;;11.05;4.47;;;;;;;8.20;82.16;101061.97;10451797;28;20510;-84
2022/01/03 08:27:51;;;;;;;22.30;7.93;;;;;;;8.27;82.24;101065.81;10485735;28;20064;-85
2022/01/03 08:32:51;;;;;;;17.15;4.60;;;;;;;8.33;82.05;101060.97;10467443;28;20447;-85
2022/01/03 08:37:52;;;;;;;17.95;6.07;;;;;;;8.35;80.91;101064.56;10467494;28;20122;-84
2022/01/03 08:42:52;;;;;;;15.68;5.30;;;;;;;8.37;80.42;101050.84;10451737;28;20447;-85
2022/01/03 08:47:53;;;;;;;19.85;5.75;;;;;;;8.43;80.34;101058.09;10444919;28;20377;-82
2022/01/03 08:52:53;;;;;;;14.20;4.43;;;;;;;8.37;80.58;101050.84;10471628;28;20040;-82
2022/01/03 08:57:54;;;;;;;21.42;6.43;;;;;;;8.52;80.33;101045.63;10457533;28;20133;-82
2022/01/03 09:02:54;;;;;;;16.52;4.68;;;;;;;8.79;78.99;101061.09;10458272;28;20056;-83
2022/01/03 09:07:55;;;;;;;17.92;5.63;;;;;;;8.89;78.04;101041.66;10454815;28;20052;-85
2022/01/03 09:12:55;;;;;;;15.10;5.03;;;;;;;8.99;77.71;101057.88;10468965;28;20169;-83
2022/01/03 09:17:56;;;;;;;40.33;20.17;;;;;;;8.91;77.80;101060.00;10425382;28;20036;-83
2022/01/03 09:23:06;;;;;;;22.90;6.13;;;;;;;9.08;77.65;101046.22;10459758;28;20082;-82
2022/01/03 09:33:26;;;;;;;13.70;3.83;;;;;;;9.01;76.34;101043.19;10459181;28;20115;-86
2022/01/03 09:38:26;;;;;;;21.35;7.80;;;;;;;9.22;77.09;101056.53;10464386;28;20128;-82
2022/01/03 09:43:27;;;;;;;14.52;5.47;;;;;;;9.65;75.13;101053.69;10459190;28;20032;-81
2022/01/03 09:48:28;;;;;;;17.08;4.90;;;;;;;9.27;76.71;101052.47;10471381;28;20035;-83
2022/01/03 09:53:28;;;;;;;21.00;5.00;;;;;;;9.21;76.65;101047.81;10453343;28;20441;-83
2022/01/03 09:58:29;;;;;;;18.25;4.60;;;;;;;9.38;75.72;101038.28;10445993;28;20056;-83
2022/01/03 10:03:30;;;;;;;18.33;4.45;;;;;;;9.43;75.83;101051.63;10450075;28;20028;-82
2022/01/03 10:08:30;;;;;;;16.95;4.13;;;;;;;9.52;75.69;101033.84;10451997;28;20511;-79
2022/01/03 10:13:32;;;;;;;22.63;5.47;;;;;;;9.41;76.25;101032.34;10466198;28;20029;-78
2022/01/03 10:18:33;;;;;;;20.67;4.57;;;;;;;9.30;76.40;101041.31;10465381;28;20472;-79
2022/01/03 10:23:34;;;;;;;36.63;9.07;;;;;;;9.40;76.04;101020.09;10447935;28;20299;-79
2022/01/03 10:28:37;;;;;;;18.05;4.63;;;;;;;9.75;74.85;101015.88;10457390;28;20119;-81
2022/01/03 10:33:37;;;;;;;15.15;4.35;;;;;;;9.81;74.81;101008.38;10464831;28;20025;-84
2022/01/03 10:38:43;;;;;;;12.68;4.82;;;;;;;9.72;75.10;101006.97;10447124;28;20080;-83
2022/01/03 10:43:45;;;;;;;13.65;4.35;;;;;;;9.68;75.05;101006.81;10492485;28;20052;-84
2022/01/03 10:48:47;;;;;;;21.33;8.68;;;;;;;9.76;75.30;100993.25;10456506;28;20118;-85
2022/01/03 10:53:47;;;;;;;;;;;;;;;9.76;75.52;100999.38;10484053;28;20036;-85
2022/01/03 10:58:48;;;;;;;19.73;4.93;;;;;;;9.97;75.05;100999.59;10460531;28;19932;-86
2022/01/03 11:03:49;;;;;;;18.13;5.32;;;;;;;10.19;73.77;101005.06;10454999;28;20037;-86
2022/01/03 11:14:10;;;;;;;20.58;5.90;;;;;;;9.89;75.06;100969.53;10474868;28;20025;-86
2022/01/03 11:19:11;;;;;;;11.70;3.37;;;;;;;9.81;75.18;100963.94;10499442;28;20021;-85
2022/01/03 11:24:13;;;;;;;27.67;4.18;;;;;;;10.15;74.32;100954.31;10478607;28;20294;-86
2022/01/03 11:29:14;;;;;;;9.02;3.00;;;;;;;10.20;74.26;100954.56;10470417;28;20396;-85
2022/01/03 11:34:15;;;;;;;10.53;4.53;;;;;;;10.06;74.20;100962.59;10478549;28;20025;-86
2022/01/03 11:39:17;;;;;;;17.95;4.40;;;;;;;9.63;75.58;100950.78;10448425;28;20070;-85
2022/01/03 11:44:18;;;;;;;10.13;4.10;;;;;;;9.49;76.37;100955.28;10435345;28;20043;-84
2022/01/03 11:49:19;;;;;;;14.20;4.20;;;;;;;9.30;77.25;100944.66;10470228;28;20035;-82
2022/01/03 11:54:20;;;;;;;10.95;5.15;;;;;;;9.24;77.83;100935.69;10446948;28;20039;-83
2022/01/03 11:59:34;;;;;;;10.75;3.40;;;;;;;9.22;77.49;100921.66;10457433;28;20934;-85
2022/01/03 12:04:37;;;;;;;13.80;3.90;;;;;;;9.28;77.33;100926.28;10452000;28;20598;-88
2022/01/03 12:09:50;;;;;;;23.38;4.80;;;;;;;9.14;78.36;100920.34;10447152;28;20477;-89
2022/01/03 12:14:52;;;;;;;9.30;3.38;;;;;;;9.05;78.79;100897.22;10452840;28;20050;-87
2022/01/03 12:19:54;;;;;;;16.47;4.37;;;;;;;9.02;78.82;100889.22;10462533;28;20025;-87
2022/01/03 12:25:01;;;;;;;14.07;3.60;;;;;;;8.96;79.98;100881.06;10457836;28;20388;-85
2022/01/03 12:30:15;;;;;;;10.90;3.92;;;;;;;9.01;79.16;100876.09;10450887;28;20032;-85
2022/01/03 12:35:17;;;;;;;9.25;3.30;;;;;;;9.08;78.94;100871.28;10458961;28;20034;-84
2022/01/03 12:40:22;;;;;;;5.50;2.40;;;;;;;9.12;78.77;100859.31;10471962;28;20514;-85
2022/01/03 12:45:29;;;;;;;8.48;2.88;;;;;;;9.10;78.62;100863.53;10478995;28;20048;-86
2022/01/03 12:50:30;;;;;;;13.77;3.05;;;;;;;9.04;79.28;100852.78;10479955;28;20037;-85
2022/01/03 12:55:41;;;;;;;13.07;3.90;;;;;;;8.76;81.01;100852.16;10475671;28;20094;-84
2022/01/03 13:00:43;;;;;;;13.85;4.75;;;;;;;8.69;81.90;100838.72;10460888;28;20029;-85
2022/01/03 13:06:05;;;;;;;21.92;5.82;;;;;;;8.70;82.70;100836.16;10462367;28;20075;-84
2022/01/03 13:11:08;;;;;;;20.67;5.83;;;;;;;8.78;82.58;100836.59;10474120;28;20043;-88
2022/01/03 13:16:31;;;;;;;16.02;4.85;;;;;;;8.73;82.79;100828.50;10427088;28;20095;-88
2022/01/03 13:21:36;;;;;;;10.18;4.93;;;;;;;8.71;82.34;100824.91;10451049;28;20064;-86
2022/01/03 13:26:59;;;;;;;14.18;3.95;;;;;;;8.70;81.82;100812.69;10459746;28;20029;-87
2022/01/03 13:32:00;;;;;;;14.45;4.05;;;;;;;8.61;81.20;100800.06;10460375;28;20033;-87
2022/01/03 13:37:06;;;;;;;11.05;3.33;;;;;;;8.50;79.92;100815.09;10449781;28;20092;-83
2022/01/03 13:42:11;;;;;;;11.60;3.97;;;;;;;8.29;80.51;100806.97;10454142;28;20470;-82
2022/01/03 13:52:46;;;;;;;5.63;2.03;;;;;;;7.44;83.23;100782.19;10456949;28;20119;-80
2022/01/03 13:57:49;;;;;;;5.47;1.30;;;;;;;7.26;84.72;100781.97;10440184;28;20034;-80
2022/01/03 14:02:49;;;;;;;6.53;1.60;;;;;;;7.21;85.10;100783.41;10483342;28;20037;-79
2022/01/03 14:07:52;;;;;;;10.05;2.30;;;;;;;7.17;85.67;100771.00;10456560;28;20021;-80
2022/01/03 14:12:55;;;;;;;5.82;1.83;;;;;;;7.16;86.04;100777.00;10463048;28;20564;-79
2022/01/03 14:17:56;;;;;;;11.35;2.47;;;;;;;7.14;86.63;100770.81;10455568;28;20023;-79
2022/01/03 14:22:56;;;;;;;6.68;2.40;;;;;;;7.15;87.12;100765.72;10456003;28;20060;-78
2022/01/03 14:28:02;;;;;;;8.65;2.83;;;;;;;7.14;87.21;100744.78;10456090;28;20025;-78
2022/01/03 14:33:06;;;;;;;8.18;3.00;;;;;;;7.15;87.18;100747.50;10468288;28;20033;-79
2022/01/03 14:38:12;;;;;;;8.65;2.60;;;;;;;7.12;87.56;100742.13;10457708;28;20041;-79
2022/01/03 14:43:28;;;;;;;6.75;2.60;;;;;;;7.06;87.62;100733.94;10490191;28;20032;-79
2022/01/03 14:48:28;;;;;;;7.25;2.58;;;;;;;7.01;88.59;100717.16;10442434;28;20377;-82
2022/01/03 14:53:29;;;;;;;5.78;4.03;;;;;;;6.98;88.78;100711.78;10472463;28;20063;-78
2022/01/03 14:58:29;;;;;;;7.45;3.47;;;;;;;7.00;88.51;100708.44;10461739;28;20465;-78
2022/01/03 15:03:30;;;;;;;5.68;1.85;;;;;;;6.95;89.07;100707.25;10458275;28;20017;-77
2022/01/03 15:08:33;;;;;;;9.38;1.77;;;;;;;6.95;87.99;100701.19;10464134;28;20026;-78
2022/01/03 15:13:34;;;;;;;4.93;1.83;;;;;;;6.93;88.62;100694.97;10475096;28;20032;-79
2022/01/03 15:18:34;;;;;;;3.80;1.70;;;;;;;7.01;89.59;100689.41;10480859;28;20029;-80
2022/01/03 15:23:35;;;;;;;6.03;2.08;;;;;;;7.09;88.72;100694.16;10450924;28;20473;-83
2022/01/03 15:28:37;;;;;;;2.40;1.02;;;;;;;7.05;88.32;100680.09;10468793;28;20029;-81
2022/01/03 15:33:37;;;;;;;3.83;1.25;;;;;;;7.06;88.07;100671.47;10466434;28;20024;-82
2022/01/03 15:38:38;;;;;;;2.70;1.23;;;;;;;7.05;87.91;100665.38;10446345;28;20048;-87
2022/01/03 15:43:38;;;;;;;4.30;1.45;;;;;;;6.94;88.38;100649.94;10467442;28;20035;-86
2022/01/03 15:48:40;;;;;;;9.35;5.00;;;;;;;6.93;88.94;100648.16;10493527;28;20422;-88
2022/01/03 15:53:41;;;;;;;3.53;1.10;;;;;;;6.85;88.28;100642.47;10473520;28;20028;-85
2022/01/03 15:58:47;;;;;;;3.97;1.00;;;;;;;6.85;89.17;100634.66;10436272;28;20049;-86
2022/01/03 16:03:48;;;;;;;4.82;1.20;;;;;;;6.90;88.52;100628.03;10446041;28;20029;-86
2022/01/03 16:08:48;;;;;;;4.88;1.02;;;;;;;6.94;88.37;100645.63;10467405;28;20123;-86
2022/01/03 16:13:49;;;;;;;2.88;1.08;;;;;;;6.93;88.74;100643.81;10473969;28;20116;-86
2022/01/03 16:18:50;;;;;;;3.97;1.70;;;;;;;6.89;88.64;100629.75;10441449;28;20540;-88
2022/01/03 16:23:51;;;;;;;7.63;2.07;;;;;;;6.86;88.95;100633.88;10467764;28;20037;-89
2022/01/03 16:28:51;;;;;;;2.75;1.20;;;;;;;6.83;88.89;100634.59;10458358;28;20056;-88
2022/01/03 16:33:52;;;;;;;7.68;2.00;;;;;;;6.83;88.62;100631.09;10474436;28;20061;-88
2022/01/03 16:38:53;;;;;;;5.43;1.60;;;;;;;6.72;89.09;100622.66;10459156;28;20143;-90
2022/01/03 16:43:54;;;;;;;3.85;2.05;;;;;;;6.69;88.41;100625.09;10457518;28;20041;-93
2022/01/03 16:48:54;;;;;;;4.93;1.42;;;;;;;6.67;88.99;100614.56;10483809;28;20079;-90
2022/01/03 16:53:55;;;;;;;3.78;1.45;;;;;;;6.64;89.18;100605.72;10445877;28;20067;-90
2022/01/03 16:58:55;;;;;;;9.00;2.08;;;;;;;6.71;89.17;100603.53;10474698;28;20040;-91
2022/01/03 17:03:55;;;;;;;3.17;1.60;;;;;;;6.83;89.08;100610.28;10497073;28;20115;-93
2022/01/03 17:08:56;;;;;;;5.18;2.15;;;;;;;6.82;89.59;100592.88;10460283;28;20091;-92
2022/01/03 17:13:57;;;;;;;4.68;2.05;;;;;;;6.91;89.11;100596.00;10490956;28;20069;-91
2022/01/03 17:18:57;;;;;;;5.63;1.55;;;;;;;6.92;88.60;100592.59;10447037;28;20556;-91
2022/01/03 17:23:58;;;;;;;8.50;2.53;;;;;;;6.90;88.43;100583.81;10416675;28;20460;-90
2022/01/03 17:28:59;;;;;;;7.72;2.85;;;;;;;6.80;88.75;100573.69;10459804;28;20043;-90
2022/01/03 17:33:59;;;;;;;5.93;2.50;;;;;;;6.86;88.12;100563.63;10479395;28;20480;-90
2022/01/03 17:39:00;;;;;;;4.03;2.28;;;;;;;6.90;88.09;100553.50;10490471;28;20080;-92
2022/01/03 17:44:00;;;;;;;10.68;2.25;;;;;;;6.85;88.40;100548.81;10475475;28;20071;-92
2022/01/03 17:49:03;;;;;;;7.80;3.83;;;;;;;6.74;88.78;100533.50;10470731;28;20131;-92
2022/01/03 17:54:04;;;;;;;9.52;2.50;;;;;;;6.64;88.93;100538.97;10458023;28;20027;-91
2022/01/03 17:59:04;;;;;;;10.15;3.22;;;;;;;6.58;88.86;100530.81;10465208;28;20027;-90
2022/01/03 18:04:06;;;;;;;5.80;2.55;;;;;;;6.53;89.13;100525.38;10504814;28;20025;-91
2022/01/03 18:09:07;;;;;;;7.75;3.33;;;;;;;6.51;89.46;100529.56;10483247;28;20123;-93
2022/01/03 18:14:07;;;;;;;5.43;2.63;;;;;;;6.45;90.00;100524.91;10462232;28;20120;-92
2022/01/03 18:19:08;;;;;;;6.15;2.85;;;;;;;6.37;90.33;100518.34;10470007;28;20110;-93
2022/01/03 18:24:09;;;;;;;4.57;2.80;;;;;;;6.32;90.41;100523.28;10502739;28;20469;-92
2022/01/03 18:29:11;;;;;;;4.78;3.30;;;;;;;6.31;90.50;100518.00;10472174;28;20390;-92
2022/01/03 18:34:11;;;;;;;5.55;2.83;;;;;;;6.31;90.17;100505.00;10442945;28;20028;-92
2022/01/03 18:39:13;;;;;;;8.82;2.83;;;;;;;6.24;90.12;100488.16;10468723;28;20064;-95
2022/01/03 18:44:13;;;;;;;5.80;2.78;;;;;;;6.37;90.34;100475.88;10470086;28;20106;-94
2022/01/03 18:49:14;;;;;;;9.32;3.58;;;;;;;6.29;91.06;100465.03;10462813;28;20029;-96
2022/01/03 18:54:16;;;;;;;7.07;3.17;;;;;;;6.28;90.57;100469.34;10493837;28;20115;-93
2022/01/03 18:59:17;;;;;;;;;;;;;;;6.26;90.68;100463.16;10463693;28;20021;-92
2022/01/03 19:04:17;;;;;;;12.35;4.90;;;;;;;6.23;90.68;100449.97;10482194;28;19916;-93
2022/01/03 19:09:19;;;;;;;7.78;3.88;;;;;;;6.29;90.75;100457.22;10491804;28;20464;-94
2022/01/03 19:14:20;;;;;;;14.15;4.45;;;;;;;6.26;90.96;100452.75;10466611;28;20029;-96
2022/01/03 19:19:21;;;;;;;7.70;2.95;;;;;;;6.27;90.86;100441.56;10493467;28;20112;-96
2022/01/03 19:24:21;;;;;;;10.10;3.97;;;;;;;6.29;91.81;100444.22;10466334;28;20429;-96
2022/01/03 19:29:22;;;;;;;7.25;4.63;;;;;;;6.39;91.04;100440.47;10494952;28;20107;-96
2022/01/03 19:39:42;;;;;;;7.68;3.72;;;;;;;6.51;90.29;100437.66;10461608;28;20490;-94
2022/01/03 19:44:43;;;;;;;7.53;3.65;;;;;;;6.46;91.02;100427.91;10492908;28;20260;-95
2022/01/03 19:49:44;;;;;;;12.02;3.60;;;;;;;6.57;90.32;100414.63;10452422;28;20505;-94
2022/01/03 19:54:45;;;;;;;8.73;3.92;;;;;;;6.53;90.97;100402.25;10504710;28;20035;-95
2022/01/03 19:59:45;;;;;;;12.98;4.78;;;;;;;6.70;90.67;100404.09;10493711;28;20441;-94
2022/01/03 20:04:48;;;;;;;14.93;5.13;;;;;;;6.69;89.89;100397.09;10462217;28;20032;-94
2022/01/03 20:09:49;;;;;;;11.70;5.22;;;;;;;6.73;90.75;100390.38;10496618;28;20024;-95
2022/01/03 20:14:49;;;;;;;7.65;3.83;;;;;;;6.84;90.75;100380.53;10463231;28;20020;-94
2022/01/03 20:19:50;;;;;;;9.02;3.83;;;;;;;7.02;90.14;100375.47;10442335;28;20017;-95
2022/01/03 20:24:50;;;;;;;12.60;6.13;;;;;;;7.07;89.92;100352.28;10459870;28;20060;-95
2022/01/03 20:29:51;;;;;;;10.90;5.85;;;;;;;7.16;89.98;100358.88;10465292;28;20443;-95
2022/01/03 20:34:51;;;;;;;9.40;4.90;;;;;;;7.19;89.70;100346.03;10469206;28;20056;-95
2022/01/03 20:39:52;;;;;;;12.13;5.10;;;;;;;7.20;89.62;100336.50;10468266;28;20032;-95
2022/01/03 20:44:52;;;;;;;15.10;6.72;;;;;;;7.17;89.80;100339.84;10511106;28;20438;-94
2022/01/03 20:49:53;;;;;;;9.07;5.68;;;;;;;7.18;90.13;100344.25;10464130;28;20036;-92
2022/01/03 20:54:53;;;;;;;13.80;6.47;;;;;;;7.31;89.11;100330.16;10476923;28;20017;-92
2022/01/03 20:59:54;;;;;;;10.82;4.50;;;;;;;7.42;88.74;100329.81;10500878;28;20107;-96
2022/01/03 21:04:58;;;;;;;9.27;4.28;;;;;;;7.43;88.49;100326.41;10497495;28;20084;-95
2022/01/03 21:09:58;;;;;;;13.38;5.80;;;;;;;7.39;88.77;100316.63;10459379;28;20036;-95
2022/01/03 21:14:59;;;;;;;13.07;6.63;;;;;;;7.40;88.41;100315.81;10458949;28;20029;-96
2022/01/03 21:20:00;;;;;;;10.30;4.78;;;;;;;7.43;87.78;100327.31;10455634;28;20117;-92
2022/01/03 21:25:01;;;;;;;12.50;4.63;;;;;;;7.41;87.94;100317.59;10468780;28;20040;-94
2022/01/03 21:30:03;;;;;;;14.40;3.88;;;;;;;7.45;87.63;100322.16;10454672;28;20024;-94
2022/01/03 21:35:04;;;;;;;11.18;3.10;;;;;;;7.43;86.79;100310.78;10466856;28;20084;-94
2022/01/03 21:40:05;;;;;;;8.65;3.22;;;;;;;7.40;86.30;100302.81;10497359;28;20061;-95
2022/01/03 21:45:06;;;;;;;10.57;3.40;;;;;;;7.33;85.57;100299.88;10449256;28;20029;-94
2022/01/03 21:50:07;;;;;;;7.10;2.47;;;;;;;7.33;86.14;100292.06;10469491;28;20035;-96
2022/01/03 21:55:07;;;;;;;18.75;3.65;;;;;;;7.29;85.68;100274.50;10468145;28;20028;-95
2022/01/03 22:00:09;;;;;;;4.72;2.50;;;;;;;7.21;84.89;100275.81;10487614;28;20032;-95
2022/01/03 22:05:09;;;;;;;4.20;1.48;;;;;;;7.13;85.22;100275.44;10492362;28;20536;-95
2022/01/03 22:10:18;;;;;;;6.38;1.70;;;;;;;7.09;84.63;100267.38;10462611;28;20115;-95
2022/01/03 22:15:18;;;;;;;6.40;1.75;;;;;;;7.03;85.65;100257.56;10446086;28;20440;-96
2022/01/03 22:20:19;;;;;;;5.38;1.50;;;;;;;6.91;85.70;100255.19;10477551;28;20024;-94
2022/01/03 22:25:20;;;;;;;5.05;2.20;;;;;;;6.90;86.22;100237.81;10466350;28;20049;-95
2022/01/03 22:30:21;;;;;;;7.97;2.73;;;;;;;6.93;85.95;100231.88;10464787;28;20033;-95
2022/01/03 22:35:22;;;;;;;3.47;1.73;;;;;;;6.79;85.99;100237.25;10465275;28;20587;-94
2022/01/03 22:40:22;;;;;;;2.53;1.15;;;;;;;6.71;87.29;100222.94;10463153;28;20124;-94
2022/01/03 22:45:23;;;;;;;5.68;1.08;;;;;;;6.56;87.17;100213.53;10445315;28;20037;-94
2022/01/03 22:50:24;;;;;;;3.03;1.40;;;;;;;6.47;87.78;100219.09;10474133;28;20050;-92
2022/01/03 22:55:24;;;;;;;3.05;1.60;;;;;;;6.46;88.49;100201.72;10475185;28;20481;-92
2022/01/03 23:00:25;;;;;;;2.15;1.10;;;;;;;6.41;88.13;100197.97;10470654;28;20077;-95
2022/01/03 23:05:26;;;;;;;3.17;1.10;;;;;;;6.31;88.86;100204.41;10461187;28;20052;-92
2022/01/03 23:10:27;;;;;;;2.47;1.10;;;;;;;6.21;89.29;100209.00;10448441;28;20090;-92
2022/01/03 23:15:27;;;;;;;4.38;1.00;;;;;;;6.17;88.79;100201.03;10474277;28;20933;-93
2022/01/03 23:20:28;;;;;;;2.97;1.08;;;;;;;6.13;89.90;100198.22;10439124;28;20120;-91
2022/01/03 23:25:28;;;;;;;5.93;1.20;;;;;;;6.08;89.92;100179.75;10454487;28;20366;-91
2022/01/03 23:30:30;;;;;;;3.03;1.00;;;;;;;6.00;89.96;100176.75;10455798;28;20433;-91
2022/01/03 23:35:32;;;;;;;3.38;1.50;;;;;;;6.00;91.29;100173.22;10480546;28;20169;-92
2022/01/03 23:40:33;;;;;;;3.28;1.35;;;;;;;5.90;90.57;100156.25;10454284;28;20076;-91
2022/01/03 23:45:34;;;;;;;6.30;1.75;;;;;;;5.87;91.33;100138.78;10453430;28;20059;-92